»·PEaware :: N81FR KLAS-MMTJ

N81FR :: KLAS-MMTJ

FLIGHT INFORMATION

Flight Status: Arrived
Operator: Privately registered:
United States
More flights under this callsign
Pilot: Andy P. (22680)
Aircraft: GATES LEARJET LEARJET 35/36
(LJ35)
More flights by this aircraft type
Origin: KLAS McCarran Intl
United States
Destination: MMTJ Gen Abelardo L Rodriguez Intl
Mexico
More flights between these airports :: More routes between these airports
Route: +BOACH8 TNP TRM JLI
File this flight plan on PilotEdge
Remarks:
Altitude:
(Current/Filed)
35,000ft
Speed:
(Current/Filed)
465kts
Departed: 18-Feb-19 01:26 PM
Arrived: 18-Feb-19 02:11 PM
Distance/Time
Traveled:
230nm/0:45
Distance/Time
To Go:
Arrived

Flight Plot

Page will automatically refresh every two minutes.

Flight plan parsing failed; only flown route is shown


Map Options




Map Legend


Flown Route
Filed Route
Departure Airport
Arrival Airport
Navaid (VOR, NDB)
Fix

Horizontal Profiles

Position Reports

Time Latitude Longitude Heading Altitude Ground
Speed
18-Feb-19 13:03 36.097809 -115.161430 297 2184ft 0kts
18-Feb-19 13:04 36.097809 -115.161430 297 2184ft 0kts
18-Feb-19 13:05 36.097809 -115.161430 297 2184ft 0kts
18-Feb-19 13:06 36.097809 -115.161430 297 2184ft 0kts
18-Feb-19 13:07 36.097809 -115.161430 297 2184ft 0kts
18-Feb-19 13:08 36.097809 -115.161430 297 2184ft 0kts
18-Feb-19 13:09 36.097809 -115.161430 297 2184ft 0kts
18-Feb-19 13:10 36.097809 -115.161430 297 2184ft 0kts
18-Feb-19 13:11 36.097809 -115.161430 297 2184ft 0kts
18-Feb-19 13:12 36.097809 -115.161430 297 2184ft 0kts
18-Feb-19 13:13 36.097809 -115.161430 297 2184ft 0kts
18-Feb-19 13:14 36.097809 -115.161430 297 2184ft 0kts
18-Feb-19 13:15 36.097809 -115.161430 297 2184ft 0kts
18-Feb-19 13:16 36.097809 -115.161430 297 2184ft 0kts
18-Feb-19 13:17 36.097809 -115.161430 297 2184ft 0kts
18-Feb-19 13:18 36.097698 -115.160421 133 2184ft 8kts
18-Feb-19 13:19 36.093522 -115.162369 204 2184ft 22kts
18-Feb-19 13:20 36.085985 -115.166714 203 2184ft 31kts
18-Feb-19 13:21 36.079934 -115.170120 205 2184ft 19kts
18-Feb-19 13:22 36.078288 -115.170193 115 2184ft 0kts
18-Feb-19 13:23 36.078288 -115.170192 115 2184ft 0kts
18-Feb-19 13:24 36.078183 -115.169922 115 2184ft 11kts
18-Feb-19 13:25 36.104664 -115.155477 356 3454ft 160kts
18-Feb-19 13:26 36.117296 -115.204734 261 5962ft 192kts
18-Feb-19 13:27 36.104150 -115.272576 257 9012ft 213kts
18-Feb-19 13:28 36.049887 -115.316481 196 12043ft 288kts
18-Feb-19 13:29 35.967181 -115.356619 203 15358ft 343kts
18-Feb-19 13:30 35.872788 -115.375179 164 19370ft 369kts
18-Feb-19 13:31 35.771983 -115.331810 166 23087ft 398kts
18-Feb-19 13:32 35.662587 -115.294307 184 26597ft 407kts
18-Feb-19 13:33 35.547188 -115.299723 188 30081ft 420kts
18-Feb-19 13:34 35.431680 -115.304417 189 33702ft 414kts
18-Feb-19 13:35 35.310005 -115.309345 188 34086ft 463kts
18-Feb-19 13:36 35.181472 -115.314286 189 34083ft 448kts
18-Feb-19 13:37 35.059305 -115.319078 189 34082ft 436kts
18-Feb-19 13:38 34.937603 -115.323861 189 34082ft 439kts
18-Feb-19 13:39 34.814531 -115.328676 189 34085ft 447kts
18-Feb-19 13:40 34.698552 -115.366767 207 34095ft 432kts
18-Feb-19 13:41 34.585070 -115.416730 207 34096ft 435kts
18-Feb-19 13:42 34.470837 -115.466588 207 34113ft 437kts
18-Feb-19 13:43 34.356000 -115.516528 207 34114ft 438kts
18-Feb-19 13:44 34.262147 -115.599172 230 34123ft 416kts
18-Feb-19 13:45 34.178171 -115.695788 229 34124ft 417kts
18-Feb-19 13:46 34.090397 -115.787619 219 34124ft 426kts
18-Feb-19 13:47 33.992250 -115.867007 221 34126ft 424kts
18-Feb-19 13:48 33.894116 -115.946538 221 34120ft 425kts
18-Feb-19 13:49 33.795847 -116.025748 221 34095ft 425kts
18-Feb-19 13:50 33.697748 -116.104556 221 34086ft 425kts
18-Feb-19 13:51 33.599730 -116.183918 222 34086ft 423kts
18-Feb-19 13:52 33.507601 -116.265612 223 32500ft 395kts
18-Feb-19 13:53 33.418561 -116.343986 223 29666ft 401kts
18-Feb-19 13:54 33.326376 -116.424588 222 26674ft 422kts
18-Feb-19 13:55 33.234304 -116.504577 222 24099ft 395kts
18-Feb-19 13:56 33.149884 -116.577510 222 23185ft 350kts
18-Feb-19 13:57 33.064741 -116.634824 216 20394ft 350kts
18-Feb-19 13:58 32.979935 -116.689453 216 17599ft 343kts
18-Feb-19 13:59 32.895993 -116.743381 214 14796ft 342kts
18-Feb-19 14:00 32.823072 -116.789967 215 13962ft 288kts
18-Feb-19 14:01 32.753462 -116.834621 215 13876ft 287kts
18-Feb-19 14:02 32.682093 -116.880218 212 10902ft 287kts
18-Feb-19 14:03 32.613808 -116.923728 211 7994ft 269kts
18-Feb-19 14:04 32.555565 -116.960758 212 7419ft 228kts
18-Feb-19 14:05 32.486187 -116.960453 168 4618ft 264kts
18-Feb-19 14:06 32.449549 -116.910346 54 3966ft 221kts
18-Feb-19 14:07 32.503336 -116.887914 354 2649ft 174kts
18-Feb-19 14:08 32.532938 -116.914589 289 1169ft 115kts
18-Feb-19 14:09 32.538474 -116.950262 280 598ft 109kts
18-Feb-19 14:10 32.540996 -116.969328 275 492ft 30kts
18-Feb-19 14:11 32.543255 -116.973668 91 492ft 0kts
18-Feb-19 14:12 32.542285 -116.965834 99 492ft 26kts
18-Feb-19 14:13 32.544170 -116.964795 99 492ft 0kts

Navigation Log

Ident Type
Flight plan parsing failed, navigation log unavailable